sensor_id;sensor_type;location;lat;lon;timestamp;temperature;humidity
15888;DHT22;56032;51.324;12.376;2022-11-09T00:01:34;13.20;99.90
15888;DHT22;56032;51.324;12.376;2022-11-09T00:04:03;13.20;99.90
15888;DHT22;56032;51.324;12.376;2022-11-09T00:06:32;13.20;99.90
15888;DHT22;56032;51.324;12.376;2022-11-09T00:09:02;13.30;99.90
15888;DHT22;56032;51.324;12.376;2022-11-09T00:11:33;13.20;99.90
15888;DHT22;56032;51.324;12.376;2022-11-09T00:14:02;13.20;99.90
15888;DHT22;56032;51.324;12.376;2022-11-09T00:16:33;13.20;99.90
15888;DHT22;56032;51.324;12.376;2022-11-09T00:19:02;13.30;99.90
15888;DHT22;56032;51.324;12.376;2022-11-09T00:21:30;13.30;99.90
15888;DHT22;56032;51.324;12.376;2022-11-09T00:23:59;13.30;99.90
15888;DHT22;56032;51.324;12.376;2022-11-09T00:26:27;13.30;99.90
15888;DHT22;56032;51.324;12.376;2022-11-09T00:28:55;13.30;99.90
15888;DHT22;56032;51.324;12.376;2022-11-09T00:31:24;13.30;99.90
15888;DHT22;56032;51.324;12.376;2022-11-09T00:33:54;13.30;99.90
15888;DHT22;56032;51.324;12.376;2022-11-09T00:36:23;13.20;99.90
15888;DHT22;56032;51.324;12.376;2022-11-09T00:38:52;13.20;99.90
15888;DHT22;56032;51.324;12.376;2022-11-09T00:41:21;13.20;99.90
15888;DHT22;56032;51.324;12.376;2022-11-09T00:43:49;13.20;99.90
15888;DHT22;56032;51.324;12.376;2022-11-09T00:46:20;13.10;99.90
15888;DHT22;56032;51.324;12.376;2022-11-09T00:48:49;13.10;99.90
15888;DHT22;56032;51.324;12.376;2022-11-09T00:51:19;13.10;99.90
15888;DHT22;56032;51.324;12.376;2022-11-09T00:53:48;13.10;99.90
15888;DHT22;56032;51.324;12.376;2022-11-09T00:56:20;13.10;99.90
15888;DHT22;56032;51.324;12.376;2022-11-09T00:58:51;13.00;99.90
15888;DHT22;56032;51.324;12.376;2022-11-09T01:01:19;13.00;99.90
15888;DHT22;56032;51.324;12.376;2022-11-09T01:03:48;13.00;99.90
15888;DHT22;56032;51.324;12.376;2022-11-09T01:06:17;13.00;99.90
15888;DHT22;56032;51.324;12.376;2022-11-09T01:08:47;12.90;99.90
15888;DHT22;56032;51.324;12.376;2022-11-09T01:11:16;12.90;99.90
15888;DHT22;56032;51.324;12.376;2022-11-09T01:13:45;12.90;99.90
15888;DHT22;56032;51.324;12.376;2022-11-09T01:16:14;12.90;99.90
15888;DHT22;56032;51.324;12.376;2022-11-09T01:18:45;12.90;99.90
15888;DHT22;56032;51.324;12.376;2022-11-09T01:21:14;12.90;99.90
15888;DHT22;56032;51.324;12.376;2022-11-09T01:23:42;12.90;99.90
15888;DHT22;56032;51.324;12.376;2022-11-09T01:26:14;12.90;99.90
15888;DHT22;56032;51.324;12.376;2022-11-09T01:28:45;12.90;99.90
15888;DHT22;56032;51.324;12.376;2022-11-09T01:31:15;12.90;99.90
15888;DHT22;56032;51.324;12.376;2022-11-09T01:33:44;12.90;99.90
15888;DHT22;56032;51.324;12.376;2022-11-09T01:36:13;13.00;99.90
15888;DHT22;56032;51.324;12.376;2022-11-09T01:38:44;13.00;99.90
15888;DHT22;56032;51.324;12.376;2022-11-09T01:41:15;12.90;99.90
15888;DHT22;56032;51.324;12.376;2022-11-09T01:44:00;13.00;99.90
15888;DHT22;56032;51.324;12.376;2022-11-09T01:46:29;12.90;99.90
15888;DHT22;56032;51.324;12.376;2022-11-09T01:49:01;12.90;99.90
15888;DHT22;56032;51.324;12.376;2022-11-09T01:51:32;12.90;99.90
15888;DHT22;56032;51.324;12.376;2022-11-09T01:54:02;12.90;99.90
15888;DHT22;56032;51.324;12.376;2022-11-09T01:56:34;12.90;99.90
15888;DHT22;56032;51.324;12.376;2022-11-09T01:59:04;12.90;99.90
15888;DHT22;56032;51.324;12.376;2022-11-09T02:01:33;12.90;99.90
15888;DHT22;56032;51.324;12.376;2022-11-09T02:04:04;12.90;99.90
15888;DHT22;56032;51.324;12.376;2022-11-09T02:06:33;12.90;99.90
15888;DHT22;56032;51.324;12.376;2022-11-09T02:09:03;13.00;99.90
15888;DHT22;56032;51.324;12.376;2022-11-09T02:11:39;13.00;99.90
15888;DHT22;56032;51.324;12.376;2022-11-09T02:14:09;13.00;99.90
15888;DHT22;56032;51.324;12.376;2022-11-09T02:16:39;13.00;99.90
15888;DHT22;56032;51.324;12.376;2022-11-09T02:19:07;13.00;99.90
15888;DHT22;56032;51.324;12.376;2022-11-09T02:21:38;13.00;99.90
15888;DHT22;56032;51.324;12.376;2022-11-09T02:24:06;13.00;99.90
15888;DHT22;56032;51.324;12.376;2022-11-09T02:26:37;13.00;99.90
15888;DHT22;56032;51.324;12.376;2022-11-09T02:29:06;13.00;99.90
15888;DHT22;56032;51.324;12.376;2022-11-09T02:31:37;13.10;99.90
15888;DHT22;56032;51.324;12.376;2022-11-09T02:34:06;13.00;99.90
15888;DHT22;56032;51.324;12.376;2022-11-09T02:36:35;13.00;99.90
15888;DHT22;56032;51.324;12.376;2022-11-09T02:39:07;13.00;99.90
15888;DHT22;56032;51.324;12.376;2022-11-09T02:41:37;12.90;99.90
15888;DHT22;56032;51.324;12.376;2022-11-09T02:44:08;13.00;99.90
15888;DHT22;56032;51.324;12.376;2022-11-09T02:46:36;13.10;99.90
15888;DHT22;56032;51.324;12.376;2022-11-09T02:49:05;13.10;99.90
15888;DHT22;56032;51.324;12.376;2022-11-09T02:51:33;13.10;99.90
15888;DHT22;56032;51.324;12.376;2022-11-09T02:54:01;13.00;99.90
15888;DHT22;56032;51.324;12.376;2022-11-09T02:56:31;13.10;99.90
15888;DHT22;56032;51.324;12.376;2022-11-09T02:58:59;13.00;99.90
15888;DHT22;56032;51.324;12.376;2022-11-09T03:01:29;13.00;99.90
15888;DHT22;56032;51.324;12.376;2022-11-09T03:03:58;13.00;99.90
15888;DHT22;56032;51.324;12.376;2022-11-09T03:06:26;13.00;99.90
15888;DHT22;56032;51.324;12.376;2022-11-09T03:09:02;13.00;99.90
15888;DHT22;56032;51.324;12.376;2022-11-09T03:11:32;13.00;99.90
15888;DHT22;56032;51.324;12.376;2022-11-09T03:14:01;13.00;99.90
15888;DHT22;56032;51.324;12.376;2022-11-09T03:16:29;12.90;99.90
15888;DHT22;56032;51.324;12.376;2022-11-09T03:18:58;13.00;99.90
15888;DHT22;56032;51.324;12.376;2022-11-09T03:21:27;12.90;99.90
15888;DHT22;56032;51.324;12.376;2022-11-09T03:23:55;12.90;99.90
15888;DHT22;56032;51.324;12.376;2022-11-09T03:26:24;12.90;99.90
15888;DHT22;56032;51.324;12.376;2022-11-09T03:28:54;12.90;99.90
15888;DHT22;56032;51.324;12.376;2022-11-09T03:31:22;12.90;99.90
15888;DHT22;56032;51.324;12.376;2022-11-09T03:33:50;12.90;99.90
15888;DHT22;56032;51.324;12.376;2022-11-09T03:36:18;12.90;99.90
15888;DHT22;56032;51.324;12.376;2022-11-09T03:38:47;12.90;99.90
15888;DHT22;56032;51.324;12.376;2022-11-09T03:41:15;12.90;99.90
15888;DHT22;56032;51.324;12.376;2022-11-09T03:43:44;12.90;99.90
15888;DHT22;56032;51.324;12.376;2022-11-09T03:46:13;12.90;99.90
15888;DHT22;56032;51.324;12.376;2022-11-09T03:48:44;12.90;99.90
15888;DHT22;56032;51.324;12.376;2022-11-09T03:51:13;12.90;99.90
15888;DHT22;56032;51.324;12.376;2022-11-09T03:53:42;12.90;99.90
15888;DHT22;56032;51.324;12.376;2022-11-09T03:56:10;12.80;99.90
15888;DHT22;56032;51.324;12.376;2022-11-09T03:58:38;12.90;99.90
15888;DHT22;56032;51.324;12.376;2022-11-09T04:01:06;12.80;99.90
15888;DHT22;56032;51.324;12.376;2022-11-09T04:03:36;12.80;99.90
15888;DHT22;56032;51.324;12.376;2022-11-09T04:06:05;12.80;99.90
15888;DHT22;56032;51.324;12.376;2022-11-09T04:08:33;12.80;99.90
15888;DHT22;56032;51.324;12.376;2022-11-09T04:11:01;12.80;99.90
15888;DHT22;56032;51.324;12.376;2022-11-09T04:13:29;12.80;99.90
15888;DHT22;56032;51.324;12.376;2022-11-09T04:15:58;12.80;99.90
15888;DHT22;56032;51.324;12.376;2022-11-09T04:18:26;12.80;99.90
15888;DHT22;56032;51.324;12.376;2022-11-09T04:20:57;12.80;99.90
15888;DHT22;56032;51.324;12.376;2022-11-09T04:23:26;12.80;99.90
15888;DHT22;56032;51.324;12.376;2022-11-09T04:25:56;12.80;99.90
15888;DHT22;56032;51.324;12.376;2022-11-09T04:28:25;12.80;99.90
15888;DHT22;56032;51.324;12.376;2022-11-09T04:30:53;12.80;99.90
15888;DHT22;56032;51.324;12.376;2022-11-09T04:33:23;12.80;99.90
15888;DHT22;56032;51.324;12.376;2022-11-09T04:35:51;12.90;99.90
15888;DHT22;56032;51.324;12.376;2022-11-09T04:38:21;12.80;99.90
15888;DHT22;56032;51.324;12.376;2022-11-09T04:40:49;12.80;99.90
15888;DHT22;56032;51.324;12.376;2022-11-09T04:43:17;12.80;99.90
15888;DHT22;56032;51.324;12.376;2022-11-09T04:45:46;12.80;99.90
15888;DHT22;56032;51.324;12.376;2022-11-09T04:48:14;12.80;99.90
15888;DHT22;56032;51.324;12.376;2022-11-09T04:50:42;12.80;99.90
15888;DHT22;56032;51.324;12.376;2022-11-09T04:53:11;12.80;99.90
15888;DHT22;56032;51.324;12.376;2022-11-09T04:55:42;12.80;99.90
15888;DHT22;56032;51.324;12.376;2022-11-09T04:58:11;12.80;99.90
15888;DHT22;56032;51.324;12.376;2022-11-09T05:00:39;12.70;99.90
15888;DHT22;56032;51.324;12.376;2022-11-09T05:03:07;12.70;99.90
15888;DHT22;56032;51.324;12.376;2022-11-09T05:05:36;12.70;99.90
15888;DHT22;56032;51.324;12.376;2022-11-09T05:08:09;12.70;99.90
15888;DHT22;56032;51.324;12.376;2022-11-09T05:10:38;12.70;99.90
15888;DHT22;56032;51.324;12.376;2022-11-09T05:13:08;12.60;99.90
15888;DHT22;56032;51.324;12.376;2022-11-09T05:15:37;12.60;99.90
15888;DHT22;56032;51.324;12.376;2022-11-09T05:18:06;12.60;99.90
15888;DHT22;56032;51.324;12.376;2022-11-09T05:20:36;12.50;99.90
15888;DHT22;56032;51.324;12.376;2022-11-09T05:23:04;12.50;99.90
15888;DHT22;56032;51.324;12.376;2022-11-09T05:25:50;12.50;99.90
15888;DHT22;56032;51.324;12.376;2022-11-09T05:28:20;12.50;99.90
15888;DHT22;56032;51.324;12.376;2022-11-09T05:30:48;12.50;99.90
15888;DHT22;56032;51.324;12.376;2022-11-09T05:33:19;12.50;99.90
15888;DHT22;56032;51.324;12.376;2022-11-09T05:35:49;12.50;99.90
15888;DHT22;56032;51.324;12.376;2022-11-09T05:38:17;12.50;99.90
15888;DHT22;56032;51.324;12.376;2022-11-09T05:40:46;12.40;99.90
15888;DHT22;56032;51.324;12.376;2022-11-09T05:43:15;12.30;99.90
15888;DHT22;56032;51.324;12.376;2022-11-09T05:45:45;12.40;99.90
15888;DHT22;56032;51.324;12.376;2022-11-09T05:48:14;12.40;99.90
15888;DHT22;56032;51.324;12.376;2022-11-09T05:50:42;12.30;99.90
15888;DHT22;56032;51.324;12.376;2022-11-09T05:53:11;12.30;99.90
15888;DHT22;56032;51.324;12.376;2022-11-09T05:55:39;12.20;99.90
15888;DHT22;56032;51.324;12.376;2022-11-09T05:58:08;12.20;99.90
15888;DHT22;56032;51.324;12.376;2022-11-09T06:00:36;12.20;99.90
15888;DHT22;56032;51.324;12.376;2022-11-09T06:03:06;12.20;99.90
15888;DHT22;56032;51.324;12.376;2022-11-09T06:05:35;12.20;99.90
15888;DHT22;56032;51.324;12.376;2022-11-09T06:08:04;12.20;99.90
15888;DHT22;56032;51.324;12.376;2022-11-09T06:10:33;12.20;99.90
15888;DHT22;56032;51.324;12.376;2022-11-09T06:13:01;12.20;99.90
15888;DHT22;56032;51.324;12.376;2022-11-09T06:15:30;12.20;99.90
15888;DHT22;56032;51.324;12.376;2022-11-09T06:17:58;12.20;99.90
15888;DHT22;56032;51.324;12.376;2022-11-09T06:23:19;12.20;99.90
15888;DHT22;56032;51.324;12.376;2022-11-09T06:25:56;12.20;99.90
15888;DHT22;56032;51.324;12.376;2022-11-09T06:28:27;12.20;99.90
15888;DHT22;56032;51.324;12.376;2022-11-09T06:30:56;12.20;99.90
15888;DHT22;56032;51.324;12.376;2022-11-09T06:33:25;12.30;99.90
15888;DHT22;56032;51.324;12.376;2022-11-09T06:35:55;12.30;99.90
15888;DHT22;56032;51.324;12.376;2022-11-09T06:38:28;12.30;99.90
15888;DHT22;56032;51.324;12.376;2022-11-09T06:40:57;12.30;99.90
15888;DHT22;56032;51.324;12.376;2022-11-09T06:43:26;12.30;99.90
15888;DHT22;56032;51.324;12.376;2022-11-09T06:45:55;12.30;99.90
15888;DHT22;56032;51.324;12.376;2022-11-09T06:48:23;12.30;99.90
15888;DHT22;56032;51.324;12.376;2022-11-09T06:50:52;12.40;99.90
15888;DHT22;56032;51.324;12.376;2022-11-09T06:53:20;12.40;99.90
15888;DHT22;56032;51.324;12.376;2022-11-09T06:55:51;12.40;99.90
15888;DHT22;56032;51.324;12.376;2022-11-09T06:58:22;12.40;99.90
15888;DHT22;56032;51.324;12.376;2022-11-09T07:00:50;12.30;99.90
15888;DHT22;56032;51.324;12.376;2022-11-09T07:03:19;12.30;99.90
15888;DHT22;56032;51.324;12.376;2022-11-09T07:05:48;12.30;99.90
15888;DHT22;56032;51.324;12.376;2022-11-09T07:08:17;12.30;99.90
15888;DHT22;56032;51.324;12.376;2022-11-09T07:10:45;12.30;99.90
15888;DHT22;56032;51.324;12.376;2022-11-09T07:13:15;12.30;99.90
15888;DHT22;56032;51.324;12.376;2022-11-09T07:15:43;12.30;99.90
15888;DHT22;56032;51.324;12.376;2022-11-09T07:18:12;12.30;99.90
15888;DHT22;56032;51.324;12.376;2022-11-09T07:20:40;12.20;99.90
15888;DHT22;56032;51.324;12.376;2022-11-09T07:23:08;12.20;99.90
15888;DHT22;56032;51.324;12.376;2022-11-09T07:25:37;12.20;99.90
15888;DHT22;56032;51.324;12.376;2022-11-09T07:28:06;12.20;99.90
15888;DHT22;56032;51.324;12.376;2022-11-09T07:30:39;12.20;99.90
15888;DHT22;56032;51.324;12.376;2022-11-09T07:33:12;12.20;99.90
15888;DHT22;56032;51.324;12.376;2022-11-09T07:35:41;12.10;99.90
15888;DHT22;56032;51.324;12.376;2022-11-09T07:38:09;12.20;99.90
15888;DHT22;56032;51.324;12.376;2022-11-09T07:40:38;12.10;99.90
15888;DHT22;56032;51.324;12.376;2022-11-09T07:43:06;12.10;99.90
15888;DHT22;56032;51.324;12.376;2022-11-09T07:45:35;12.10;99.90
15888;DHT22;56032;51.324;12.376;2022-11-09T07:48:06;12.10;99.90
15888;DHT22;56032;51.324;12.376;2022-11-09T07:50:37;12.10;99.90
15888;DHT22;56032;51.324;12.376;2022-11-09T07:53:06;12.00;99.90
15888;DHT22;56032;51.324;12.376;2022-11-09T07:55:35;12.00;99.90
15888;DHT22;56032;51.324;12.376;2022-11-09T07:58:09;12.00;99.90
15888;DHT22;56032;51.324;12.376;2022-11-09T08:00:39;12.00;99.90
15888;DHT22;56032;51.324;12.376;2022-11-09T08:03:09;12.00;99.90
15888;DHT22;56032;51.324;12.376;2022-11-09T08:05:41;12.00;99.90
15888;DHT22;56032;51.324;12.376;2022-11-09T08:08:10;12.00;99.90
15888;DHT22;56032;51.324;12.376;2022-11-09T08:10:38;12.00;99.90
15888;DHT22;56032;51.324;12.376;2022-11-09T08:13:08;12.10;99.90
15888;DHT22;56032;51.324;12.376;2022-11-09T08:15:37;12.10;99.90
15888;DHT22;56032;51.324;12.376;2022-11-09T08:18:07;12.20;99.90
15888;DHT22;56032;51.324;12.376;2022-11-09T08:20:38;12.20;99.90
15888;DHT22;56032;51.324;12.376;2022-11-09T08:23:10;12.20;99.90
15888;DHT22;56032;51.324;12.376;2022-11-09T08:25:39;12.20;99.90
15888;DHT22;56032;51.324;12.376;2022-11-09T08:28:08;12.20;99.90
15888;DHT22;56032;51.324;12.376;2022-11-09T08:30:41;12.30;99.90
15888;DHT22;56032;51.324;12.376;2022-11-09T08:33:09;12.30;99.90
15888;DHT22;56032;51.324;12.376;2022-11-09T08:35:39;12.30;99.90
15888;DHT22;56032;51.324;12.376;2022-11-09T08:38:08;12.30;99.90
15888;DHT22;56032;51.324;12.376;2022-11-09T08:40:36;12.30;99.90
15888;DHT22;56032;51.324;12.376;2022-11-09T08:43:05;12.30;99.90
15888;DHT22;56032;51.324;12.376;2022-11-09T08:45:34;12.40;99.90
15888;DHT22;56032;51.324;12.376;2022-11-09T08:48:03;12.20;99.90
15888;DHT22;56032;51.324;12.376;2022-11-09T08:50:34;12.40;99.90
15888;DHT22;56032;51.324;12.376;2022-11-09T08:53:04;12.40;99.90
15888;DHT22;56032;51.324;12.376;2022-11-09T08:55:34;12.50;99.90
15888;DHT22;56032;51.324;12.376;2022-11-09T08:58:02;12.50;99.90
15888;DHT22;56032;51.324;12.376;2022-11-09T09:00:33;12.50;99.90
15888;DHT22;56032;51.324;12.376;2022-11-09T09:03:03;12.60;99.90
15888;DHT22;56032;51.324;12.376;2022-11-09T09:05:35;12.60;99.90
15888;DHT22;56032;51.324;12.376;2022-11-09T09:08:06;12.60;99.90
15888;DHT22;56032;51.324;12.376;2022-11-09T09:10:38;12.60;99.90
15888;DHT22;56032;51.324;12.376;2022-11-09T09:13:07;12.70;99.90
15888;DHT22;56032;51.324;12.376;2022-11-09T09:15:36;12.70;99.90
15888;DHT22;56032;51.324;12.376;2022-11-09T09:18:05;12.70;99.90
15888;DHT22;56032;51.324;12.376;2022-11-09T09:20:35;12.70;99.90
15888;DHT22;56032;51.324;12.376;2022-11-09T09:23:03;12.80;99.90
15888;DHT22;56032;51.324;12.376;2022-11-09T09:25:33;12.80;99.90
15888;DHT22;56032;51.324;12.376;2022-11-09T09:28:02;12.80;99.90
15888;DHT22;56032;51.324;12.376;2022-11-09T09:30:30;12.90;99.90
15888;DHT22;56032;51.324;12.376;2022-11-09T09:32:58;12.90;99.90
15888;DHT22;56032;51.324;12.376;2022-11-09T09:35:27;13.00;99.90
15888;DHT22;56032;51.324;12.376;2022-11-09T09:37:55;13.10;99.90
15888;DHT22;56032;51.324;12.376;2022-11-09T09:40:25;13.10;99.90
15888;DHT22;56032;51.324;12.376;2022-11-09T09:42:58;13.10;99.90
15888;DHT22;56032;51.324;12.376;2022-11-09T09:45:27;13.10;99.90
15888;DHT22;56032;51.324;12.376;2022-11-09T09:48:01;13.10;99.90
15888;DHT22;56032;51.324;12.376;2022-11-09T09:50:30;13.30;99.90
15888;DHT22;56032;51.324;12.376;2022-11-09T09:53:06;13.60;99.90
15888;DHT22;56032;51.324;12.376;2022-11-09T09:55:52;13.80;99.90
15888;DHT22;56032;51.324;12.376;2022-11-09T09:58:24;14.00;99.90
15888;DHT22;56032;51.324;12.376;2022-11-09T10:00:56;13.90;99.90
15888;DHT22;56032;51.324;12.376;2022-11-09T10:03:25;13.80;99.90
15888;DHT22;56032;51.324;12.376;2022-11-09T10:05:55;13.80;99.90
15888;DHT22;56032;51.324;12.376;2022-11-09T10:08:28;13.80;99.90
15888;DHT22;56032;51.324;12.376;2022-11-09T10:11:02;13.80;99.90
15888;DHT22;56032;51.324;12.376;2022-11-09T10:13:45;13.80;99.90
15888;DHT22;56032;51.324;12.376;2022-11-09T10:16:19;13.90;99.90
15888;DHT22;56032;51.324;12.376;2022-11-09T10:18:54;14.20;99.90
15888;DHT22;56032;51.324;12.376;2022-11-09T10:21:30;14.40;99.90
15888;DHT22;56032;51.324;12.376;2022-11-09T10:24:05;14.50;99.90
15888;DHT22;56032;51.324;12.376;2022-11-09T10:26:37;14.70;99.90
15888;DHT22;56032;51.324;12.376;2022-11-09T10:29:14;14.70;99.90
15888;DHT22;56032;51.324;12.376;2022-11-09T10:31:44;15.00;99.90
15888;DHT22;56032;51.324;12.376;2022-11-09T10:34:16;14.80;99.90
15888;DHT22;56032;51.324;12.376;2022-11-09T10:36:46;14.70;99.90
15888;DHT22;56032;51.324;12.376;2022-11-09T10:39:17;14.70;99.90
15888;DHT22;56032;51.324;12.376;2022-11-09T10:41:46;14.70;99.90
15888;DHT22;56032;51.324;12.376;2022-11-09T10:44:16;14.80;99.90
15888;DHT22;56032;51.324;12.376;2022-11-09T10:47:03;14.90;99.90
15888;DHT22;56032;51.324;12.376;2022-11-09T10:49:33;15.00;99.90
15888;DHT22;56032;51.324;12.376;2022-11-09T10:52:08;15.00;99.90
15888;DHT22;56032;51.324;12.376;2022-11-09T10:54:53;14.90;99.90
15888;DHT22;56032;51.324;12.376;2022-11-09T10:57:49;14.90;99.90
15888;DHT22;56032;51.324;12.376;2022-11-09T11:00:21;15.00;99.90
15888;DHT22;56032;51.324;12.376;2022-11-09T11:02:49;15.10;99.90
15888;DHT22;56032;51.324;12.376;2022-11-09T11:05:20;15.10;99.90
15888;DHT22;56032;51.324;12.376;2022-11-09T11:07:49;15.10;99.90
15888;DHT22;56032;51.324;12.376;2022-11-09T11:10:17;15.10;99.90
15888;DHT22;56032;51.324;12.376;2022-11-09T11:12:51;15.00;99.90
15888;DHT22;56032;51.324;12.376;2022-11-09T11:15:22;15.00;99.90
15888;DHT22;56032;51.324;12.376;2022-11-09T11:17:53;15.10;99.90
15888;DHT22;56032;51.324;12.376;2022-11-09T11:20:28;15.00;99.90
15888;DHT22;56032;51.324;12.376;2022-11-09T11:23:04;15.00;99.90
15888;DHT22;56032;51.324;12.376;2022-11-09T11:25:39;15.00;99.90
15888;DHT22;56032;51.324;12.376;2022-11-09T11:28:20;15.00;99.90
15888;DHT22;56032;51.324;12.376;2022-11-09T11:30:51;15.00;99.90
15888;DHT22;56032;51.324;12.376;2022-11-09T11:33:20;15.00;99.90
15888;DHT22;56032;51.324;12.376;2022-11-09T11:35:51;15.00;99.90
15888;DHT22;56032;51.324;12.376;2022-11-09T11:38:26;15.00;99.90
15888;DHT22;56032;51.324;12.376;2022-11-09T11:41:06;15.00;99.90
15888;DHT22;56032;51.324;12.376;2022-11-09T11:43:40;15.00;99.90
15888;DHT22;56032;51.324;12.376;2022-11-09T11:46:16;15.00;99.90
15888;DHT22;56032;51.324;12.376;2022-11-09T11:51:36;15.10;99.90
15888;DHT22;56032;51.324;12.376;2022-11-09T11:54:12;15.10;99.90
15888;DHT22;56032;51.324;12.376;2022-11-09T11:56:44;15.10;99.90
15888;DHT22;56032;51.324;12.376;2022-11-09T11:59:20;15.10;99.90
15888;DHT22;56032;51.324;12.376;2022-11-09T12:01:58;15.10;99.90
15888;DHT22;56032;51.324;12.376;2022-11-09T12:04:32;15.10;99.90
15888;DHT22;56032;51.324;12.376;2022-11-09T12:07:11;15.20;99.90
15888;DHT22;56032;51.324;12.376;2022-11-09T12:09:55;15.20;99.90
15888;DHT22;56032;51.324;12.376;2022-11-09T12:12:31;15.20;99.90
15888;DHT22;56032;51.324;12.376;2022-11-09T12:15:15;15.30;99.90
15888;DHT22;56032;51.324;12.376;2022-11-09T12:17:49;15.30;99.90
15888;DHT22;56032;51.324;12.376;2022-11-09T12:20:21;15.30;99.90
15888;DHT22;56032;51.324;12.376;2022-11-09T12:22:56;15.30;99.90
15888;DHT22;56032;51.324;12.376;2022-11-09T12:25:29;15.30;99.90
15888;DHT22;56032;51.324;12.376;2022-11-09T12:28:02;15.30;99.90
15888;DHT22;56032;51.324;12.376;2022-11-09T12:30:38;15.30;99.90
15888;DHT22;56032;51.324;12.376;2022-11-09T12:33:13;15.30;99.90
15888;DHT22;56032;51.324;12.376;2022-11-09T12:35:48;15.30;99.90
15888;DHT22;56032;51.324;12.376;2022-11-09T12:38:19;15.30;99.90
15888;DHT22;56032;51.324;12.376;2022-11-09T12:40:51;15.30;99.90
15888;DHT22;56032;51.324;12.376;2022-11-09T12:43:22;15.40;99.90
15888;DHT22;56032;51.324;12.376;2022-11-09T12:45:52;15.50;99.90
15888;DHT22;56032;51.324;12.376;2022-11-09T12:48:26;15.50;99.90
15888;DHT22;56032;51.324;12.376;2022-11-09T12:50:56;15.60;99.90
15888;DHT22;56032;51.324;12.376;2022-11-09T12:53:26;15.60;99.90
15888;DHT22;56032;51.324;12.376;2022-11-09T12:55:56;15.80;99.90
15888;DHT22;56032;51.324;12.376;2022-11-09T12:58:26;15.80;99.90
15888;DHT22;56032;51.324;12.376;2022-11-09T13:00:58;15.80;99.90
15888;DHT22;56032;51.324;12.376;2022-11-09T13:03:29;15.80;99.90
15888;DHT22;56032;51.324;12.376;2022-11-09T13:08:56;15.80;99.90
15888;DHT22;56032;51.324;12.376;2022-11-09T13:11:31;15.80;99.90
15888;DHT22;56032;51.324;12.376;2022-11-09T13:16:49;15.90;99.90
15888;DHT22;56032;51.324;12.376;2022-11-09T13:25:12;16.00;99.90
15888;DHT22;56032;51.324;12.376;2022-11-09T13:27:54;16.00;99.90
15888;DHT22;56032;51.324;12.376;2022-11-09T13:33:25;16.00;99.90
15888;DHT22;56032;51.324;12.376;2022-11-09T13:35:58;16.00;99.90
15888;DHT22;56032;51.324;12.376;2022-11-09T13:38:29;16.10;99.90
15888;DHT22;56032;51.324;12.376;2022-11-09T13:40:57;16.00;99.90
15888;DHT22;56032;51.324;12.376;2022-11-09T13:43:27;16.00;99.90
15888;DHT22;56032;51.324;12.376;2022-11-09T13:45:57;15.90;99.90
15888;DHT22;56032;51.324;12.376;2022-11-09T13:48:34;15.90;99.90
15888;DHT22;56032;51.324;12.376;2022-11-09T13:51:03;15.90;99.90
15888;DHT22;56032;51.324;12.376;2022-11-09T14:02:21;15.80;99.90
15888;DHT22;56032;51.324;12.376;2022-11-09T14:04:50;15.80;99.90
15888;DHT22;56032;51.324;12.376;2022-11-09T14:07:21;15.80;99.90
15888;DHT22;56032;51.324;12.376;2022-11-09T14:09:56;15.80;99.90
15888;DHT22;56032;51.324;12.376;2022-11-09T14:12:30;15.80;99.90
15888;DHT22;56032;51.324;12.376;2022-11-09T14:15:06;15.90;99.90
15888;DHT22;56032;51.324;12.376;2022-11-09T14:17:42;15.70;99.90
15888;DHT22;56032;51.324;12.376;2022-11-09T14:20:19;15.60;99.90
15888;DHT22;56032;51.324;12.376;2022-11-09T14:22:51;15.60;99.90
15888;DHT22;56032;51.324;12.376;2022-11-09T14:25:20;15.50;99.90
15888;DHT22;56032;51.324;12.376;2022-11-09T14:27:50;15.50;99.90
15888;DHT22;56032;51.324;12.376;2022-11-09T14:30:25;15.50;99.90
15888;DHT22;56032;51.324;12.376;2022-11-09T14:32:55;15.50;99.90
15888;DHT22;56032;51.324;12.376;2022-11-09T14:35:28;15.40;99.90
15888;DHT22;56032;51.324;12.376;2022-11-09T14:38:00;15.40;99.90
15888;DHT22;56032;51.324;12.376;2022-11-09T14:40:30;15.40;99.90
15888;DHT22;56032;51.324;12.376;2022-11-09T14:43:01;15.40;99.90
15888;DHT22;56032;51.324;12.376;2022-11-09T14:45:30;15.30;99.90
15888;DHT22;56032;51.324;12.376;2022-11-09T14:47:59;15.30;99.90
15888;DHT22;56032;51.324;12.376;2022-11-09T14:50:32;15.30;99.90
15888;DHT22;56032;51.324;12.376;2022-11-09T14:53:01;15.20;99.90
15888;DHT22;56032;51.324;12.376;2022-11-09T14:55:36;15.20;99.90
15888;DHT22;56032;51.324;12.376;2022-11-09T14:58:11;15.10;99.90
15888;DHT22;56032;51.324;12.376;2022-11-09T15:00:41;15.10;99.90
15888;DHT22;56032;51.324;12.376;2022-11-09T15:03:23;15.10;99.90
15888;DHT22;56032;51.324;12.376;2022-11-09T15:06:01;15.10;99.90
15888;DHT22;56032;51.324;12.376;2022-11-09T15:08:30;15.00;99.90
15888;DHT22;56032;51.324;12.376;2022-11-09T15:10:59;15.00;99.90
15888;DHT22;56032;51.324;12.376;2022-11-09T15:13:29;15.00;99.90
15888;DHT22;56032;51.324;12.376;2022-11-09T15:15:57;15.00;99.90
15888;DHT22;56032;51.324;12.376;2022-11-09T15:18:28;15.00;99.90
15888;DHT22;56032;51.324;12.376;2022-11-09T15:21:10;14.90;99.90
15888;DHT22;56032;51.324;12.376;2022-11-09T15:23:39;14.90;99.90
15888;DHT22;56032;51.324;12.376;2022-11-09T15:28:51;14.90;99.90
15888;DHT22;56032;51.324;12.376;2022-11-09T15:31:20;14.90;99.90
15888;DHT22;56032;51.324;12.376;2022-11-09T15:33:53;14.90;99.90
15888;DHT22;56032;51.324;12.376;2022-11-09T15:36:29;14.80;99.90
15888;DHT22;56032;51.324;12.376;2022-11-09T15:39:03;14.80;99.90
15888;DHT22;56032;51.324;12.376;2022-11-09T15:41:36;14.70;99.90
15888;DHT22;56032;51.324;12.376;2022-11-09T15:44:04;14.70;99.90
15888;DHT22;56032;51.324;12.376;2022-11-09T15:46:33;14.70;99.90
15888;DHT22;56032;51.324;12.376;2022-11-09T15:49:12;14.60;99.90
15888;DHT22;56032;51.324;12.376;2022-11-09T15:51:43;14.60;99.90
15888;DHT22;56032;51.324;12.376;2022-11-09T15:54:11;14.60;99.90
15888;DHT22;56032;51.324;12.376;2022-11-09T15:56:40;14.60;99.90
15888;DHT22;56032;51.324;12.376;2022-11-09T15:59:11;14.50;99.90
15888;DHT22;56032;51.324;12.376;2022-11-09T16:01:42;14.50;99.90
15888;DHT22;56032;51.324;12.376;2022-11-09T16:04:13;14.50;99.90
15888;DHT22;56032;51.324;12.376;2022-11-09T16:06:42;14.40;99.90
15888;DHT22;56032;51.324;12.376;2022-11-09T16:09:12;14.40;99.90